Terminal Aerodrome Forecast
Issued by NWS

Home | Current Version | Previous Version | Text Only | Print | Product List | Glossary On
Versions: 1 2 3 4 5 6 7 8 9 10 11 12 13 14 15 16 17 18 19
000
FTUS44 KLZK 012300 RRA
TAFLIT
TAF
KLIT 012344Z 0200/0224 11010KT P6SM SCT050 BKN250
     FM020100 12010KT 5SM -SHRA VCTS SCT025 BKN060CB
      TEMPO 0201/0205 VRB12G22KT 2SM -TSRA SCT010 BKN025CB
     FM020600 20008KT P6SM BKN100
     FM021300 19009KT P6SM OVC025
     FM021800 20012G18KT P6SM SCT025 BKN035=

USA.gov is the U.S. government's official web portal to all federal, state and local government web resources and services.